Anna, Illinois
Current Conditions -  °F | °C
As of 2:52 AM on Wednesday 26 Nov 2014 (Local Time) from KMDH Reporting Station
Clear Clear  
Wind Chill: 16°   Ceiling: Unl
Heat Index: 22°   Visibility: 8mi
Dew Point: 20°   Wind: 5mph
Humidity: 92%   Direction: 120°ESE
Pressure: 30.14"   Gusts: NA
Location:  37.46°N, 89.25°W
Report Text: KMDH 260852Z AUTO 12004KT 8SM CLR M06/M07 A3014 RMK AO2 SLP209 I1000 I3000 T10561067 57014
Loading
Personal Weather Stations






























Interactive Weather Map New forecast layout! Learn more

10-Day Weather Forecast

Advertisements
Track Severe Weather on mobile